sensor_id;sensor_type;location;lat;lon;timestamp;pressure;altitude;pressure_sealevel;temperature;humidity
1401;BME280;46518;48.842;8.926;2023-06-10T00:00:19;96739.34;;;19.16;56.59
1401;BME280;46518;48.842;8.926;2023-06-10T00:02:48;96738.56;;;19.16;55.66
1401;BME280;46518;48.842;8.926;2023-06-10T00:05:16;96734.47;;;19.10;56.50
1401;BME280;46518;48.842;8.926;2023-06-10T00:07:47;96738.34;;;18.95;57.42
1401;BME280;46518;48.842;8.926;2023-06-10T00:10:16;96734.69;;;18.82;57.72
1401;BME280;46518;48.842;8.926;2023-06-10T00:12:46;96743.28;;;18.79;58.36
1401;BME280;46518;48.842;8.926;2023-06-10T00:15:14;96734.31;;;18.75;58.84
1401;BME280;46518;48.842;8.926;2023-06-10T00:17:42;96739.78;;;18.70;59.48
1401;BME280;46518;48.842;8.926;2023-06-10T00:20:11;96729.25;;;18.65;59.92
1401;BME280;46518;48.842;8.926;2023-06-10T00:22:39;96738.66;;;18.62;60.05
1401;BME280;46518;48.842;8.926;2023-06-10T00:25:09;96739.44;;;18.63;60.14
1401;BME280;46518;48.842;8.926;2023-06-10T00:27:38;96738.78;;;18.57;60.16
1401;BME280;46518;48.842;8.926;2023-06-10T00:30:08;96744.53;;;18.50;60.18
1401;BME280;46518;48.842;8.926;2023-06-10T00:32:37;96735.84;;;18.36;60.35
1401;BME280;46518;48.842;8.926;2023-06-10T00:35:06;96738.91;;;18.29;60.63
1401;BME280;46518;48.842;8.926;2023-06-10T00:37:36;96736.81;;;18.18;60.26
1401;BME280;46518;48.842;8.926;2023-06-10T00:40:05;96744.19;;;18.21;60.51
1401;BME280;46518;48.842;8.926;2023-06-10T00:42:35;96746.00;;;18.34;60.18
1401;BME280;46518;48.842;8.926;2023-06-10T00:45:04;96744.94;;;18.35;59.46
1401;BME280;46518;48.842;8.926;2023-06-10T00:47:37;96742.63;;;18.42;59.15
1401;BME280;46518;48.842;8.926;2023-06-10T00:50:06;96746.09;;;18.51;59.20
1401;BME280;46518;48.842;8.926;2023-06-10T00:52:35;96740.41;;;18.44;59.23
1401;BME280;46518;48.842;8.926;2023-06-10T00:55:04;96733.78;;;18.33;59.75
1401;BME280;46518;48.842;8.926;2023-06-10T00:57:32;96739.53;;;18.26;60.24
1401;BME280;46518;48.842;8.926;2023-06-10T01:00:01;96742.81;;;18.23;60.62
1401;BME280;46518;48.842;8.926;2023-06-10T01:02:34;96744.13;;;18.12;61.24
1401;BME280;46518;48.842;8.926;2023-06-10T01:05:04;96741.72;;;18.02;61.69
1401;BME280;46518;48.842;8.926;2023-06-10T01:07:37;96747.84;;;18.02;61.77
1401;BME280;46518;48.842;8.926;2023-06-10T01:10:11;96745.88;;;17.94;62.02
1401;BME280;46518;48.842;8.926;2023-06-10T01:12:43;96741.28;;;17.86;62.01
1401;BME280;46518;48.842;8.926;2023-06-10T01:15:16;96746.03;;;17.75;62.18
1401;BME280;46518;48.842;8.926;2023-06-10T01:17:56;96741.28;;;17.72;62.48
1401;BME280;46518;48.842;8.926;2023-06-10T01:20:27;96734.00;;;17.78;62.18
1401;BME280;46518;48.842;8.926;2023-06-10T01:22:58;96734.00;;;17.78;62.26
1401;BME280;46518;48.842;8.926;2023-06-10T01:25:27;96736.78;;;17.73;62.52
1401;BME280;46518;48.842;8.926;2023-06-10T01:28:02;96735.97;;;17.72;62.64
1401;BME280;46518;48.842;8.926;2023-06-10T01:30:38;96741.28;;;17.72;63.01
1401;BME280;46518;48.842;8.926;2023-06-10T01:33:12;96734.69;;;17.69;63.37
1401;BME280;46518;48.842;8.926;2023-06-10T01:35:43;96738.06;;;17.61;62.17
1401;BME280;46518;48.842;8.926;2023-06-10T01:38:14;96734.88;;;17.73;62.04
1401;BME280;46518;48.842;8.926;2023-06-10T01:40:43;96735.88;;;17.77;62.38
1401;BME280;46518;48.842;8.926;2023-06-10T01:43:13;96739.59;;;17.76;61.87
1401;BME280;46518;48.842;8.926;2023-06-10T01:45:41;96738.34;;;17.74;62.11
1401;BME280;46518;48.842;8.926;2023-06-10T01:48:09;96740.63;;;17.80;62.04
1401;BME280;46518;48.842;8.926;2023-06-10T01:50:38;96752.44;;;17.88;61.92
1401;BME280;46518;48.842;8.926;2023-06-10T01:53:06;96740.88;;;17.79;62.09
1401;BME280;46518;48.842;8.926;2023-06-10T01:55:35;96740.63;;;17.66;62.46
1401;BME280;46518;48.842;8.926;2023-06-10T01:58:03;96747.16;;;17.60;62.92
1401;BME280;46518;48.842;8.926;2023-06-10T02:00:32;96737.31;;;17.47;63.36
1401;BME280;46518;48.842;8.926;2023-06-10T02:03:00;96749.81;;;17.60;63.21
1401;BME280;46518;48.842;8.926;2023-06-10T02:05:29;96725.09;;;17.46;63.13
1401;BME280;46518;48.842;8.926;2023-06-10T02:07:57;96749.97;;;17.64;63.07
1401;BME280;46518;48.842;8.926;2023-06-10T02:10:25;96747.31;;;17.64;63.43
1401;BME280;46518;48.842;8.926;2023-06-10T02:12:54;96752.03;;;17.67;63.89
1401;BME280;46518;48.842;8.926;2023-06-10T02:15:22;96755.03;;;17.65;63.88
1401;BME280;46518;48.842;8.926;2023-06-10T02:17:51;96755.50;;;17.67;64.02
1401;BME280;46518;48.842;8.926;2023-06-10T02:20:21;96754.94;;;17.57;64.10
1401;BME280;46518;48.842;8.926;2023-06-10T02:22:49;96758.59;;;17.47;64.31
1401;BME280;46518;48.842;8.926;2023-06-10T02:25:17;96747.97;;;17.33;64.40
1401;BME280;46518;48.842;8.926;2023-06-10T02:27:45;96751.91;;;17.36;64.55
1401;BME280;46518;48.842;8.926;2023-06-10T02:30:15;96752.13;;;17.25;64.78
1401;BME280;46518;48.842;8.926;2023-06-10T02:32:43;96752.09;;;17.39;64.40
1401;BME280;46518;48.842;8.926;2023-06-10T02:35:17;96763.78;;;17.52;64.07
1401;BME280;46518;48.842;8.926;2023-06-10T02:37:45;96762.25;;;17.51;63.20
1401;BME280;46518;48.842;8.926;2023-06-10T02:40:14;96764.91;;;17.51;63.30
1401;BME280;46518;48.842;8.926;2023-06-10T02:42:42;96762.16;;;17.42;63.39
1401;BME280;46518;48.842;8.926;2023-06-10T02:45:11;96770.16;;;17.42;63.63
1401;BME280;46518;48.842;8.926;2023-06-10T02:47:43;96765.00;;;17.32;64.17
1401;BME280;46518;48.842;8.926;2023-06-10T02:50:12;96771.34;;;17.22;64.41
1401;BME280;46518;48.842;8.926;2023-06-10T02:52:50;96776.25;;;17.15;64.87
1401;BME280;46518;48.842;8.926;2023-06-10T02:55:19;96774.28;;;17.07;64.90
1401;BME280;46518;48.842;8.926;2023-06-10T02:57:53;96764.34;;;16.99;65.07
1401;BME280;46518;48.842;8.926;2023-06-10T03:00:22;96770.16;;;17.01;65.65
1401;BME280;46518;48.842;8.926;2023-06-10T03:02:52;96773.91;;;17.00;65.66
1401;BME280;46518;48.842;8.926;2023-06-10T03:05:28;96771.25;;;17.00;65.87
1401;BME280;46518;48.842;8.926;2023-06-10T03:07:58;96768.38;;;16.96;65.88
1401;BME280;46518;48.842;8.926;2023-06-10T03:10:27;96771.53;;;16.98;65.92
1401;BME280;46518;48.842;8.926;2023-06-10T03:12:56;96780.78;;;17.01;66.03
1401;BME280;46518;48.842;8.926;2023-06-10T03:15:24;96780.09;;;16.95;66.16
1401;BME280;46518;48.842;8.926;2023-06-10T03:17:54;96779.00;;;16.96;66.10
1401;BME280;46518;48.842;8.926;2023-06-10T03:20:22;96779.78;;;16.97;66.34
1401;BME280;46518;48.842;8.926;2023-06-10T03:22:52;96787.19;;;17.00;66.24
1401;BME280;46518;48.842;8.926;2023-06-10T03:25:20;96787.66;;;17.02;66.36
1401;BME280;46518;48.842;8.926;2023-06-10T03:27:51;96787.66;;;17.02;66.88
1401;BME280;46518;48.842;8.926;2023-06-10T03:30:19;96789.53;;;17.01;66.85
1401;BME280;46518;48.842;8.926;2023-06-10T03:32:48;96779.00;;;16.96;66.74
1401;BME280;46518;48.842;8.926;2023-06-10T03:35:20;96795.34;;;17.03;66.88
1401;BME280;46518;48.842;8.926;2023-06-10T03:37:49;96793.78;;;17.02;66.96
1401;BME280;46518;48.842;8.926;2023-06-10T03:40:17;96795.16;;;17.00;67.14
1401;BME280;46518;48.842;8.926;2023-06-10T03:42:46;96798.09;;;16.98;67.26
1401;BME280;46518;48.842;8.926;2023-06-10T03:45:17;96794.84;;;17.01;67.27
1401;BME280;46518;48.842;8.926;2023-06-10T03:47:46;96798.41;;;16.97;67.46
1401;BME280;46518;48.842;8.926;2023-06-10T03:50:19;96812.28;;;16.94;67.68
1401;BME280;46518;48.842;8.926;2023-06-10T03:52:49;96809.03;;;16.97;67.92
1401;BME280;46518;48.842;8.926;2023-06-10T03:55:21;96806.97;;;16.94;68.24
1401;BME280;46518;48.842;8.926;2023-06-10T03:57:50;96816.44;;;17.00;68.11
1401;BME280;46518;48.842;8.926;2023-06-10T04:00:18;96818.78;;;17.01;68.37
1401;BME280;46518;48.842;8.926;2023-06-10T04:02:48;96814.84;;;16.99;68.48
1401;BME280;46518;48.842;8.926;2023-06-10T04:05:28;96815.25;;;17.06;68.66
1401;BME280;46518;48.842;8.926;2023-06-10T04:07:57;96811.13;;;17.14;68.60
1401;BME280;46518;48.842;8.926;2023-06-10T04:10:26;96816.66;;;17.17;68.56
1401;BME280;46518;48.842;8.926;2023-06-10T04:12:54;96812.00;;;17.23;68.47
1401;BME280;46518;48.842;8.926;2023-06-10T04:15:26;96809.53;;;17.27;68.61
1401;BME280;46518;48.842;8.926;2023-06-10T04:17:56;96810.31;;;17.27;68.79
1401;BME280;46518;48.842;8.926;2023-06-10T04:20:26;96813.47;;;17.29;68.86
1401;BME280;46518;48.842;8.926;2023-06-10T04:22:55;96816.63;;;17.31;68.86
1401;BME280;46518;48.842;8.926;2023-06-10T04:25:23;96809.16;;;17.33;68.97
1401;BME280;46518;48.842;8.926;2023-06-10T04:27:53;96811.53;;;17.35;68.87
1401;BME280;46518;48.842;8.926;2023-06-10T04:30:21;96794.38;;;17.27;68.39
1401;BME280;46518;48.842;8.926;2023-06-10T04:32:51;96802.06;;;17.29;68.64
1401;BME280;46518;48.842;8.926;2023-06-10T04:35:19;96820.09;;;17.45;69.49
1401;BME280;46518;48.842;8.926;2023-06-10T04:37:48;96800.78;;;17.40;69.92
1401;BME280;46518;48.842;8.926;2023-06-10T04:40:18;96824.44;;;17.55;70.44
1401;BME280;46518;48.842;8.926;2023-06-10T04:42:47;96823.63;;;17.55;70.86
1401;BME280;46518;48.842;8.926;2023-06-10T04:45:17;96815.91;;;17.67;71.48
1401;BME280;46518;48.842;8.926;2023-06-10T04:47:45;96811.88;;;17.69;71.92
1401;BME280;46518;48.842;8.926;2023-06-10T04:50:13;96820.56;;;17.75;72.09
1401;BME280;46518;48.842;8.926;2023-06-10T04:52:42;96822.91;;;17.77;72.16
1401;BME280;46518;48.842;8.926;2023-06-10T04:55:12;96823.41;;;17.79;72.17
1401;BME280;46518;48.842;8.926;2023-06-10T04:57:41;96819.59;;;17.85;72.45
1401;BME280;46518;48.842;8.926;2023-06-10T05:00:10;96825.97;;;17.84;72.52
1401;BME280;46518;48.842;8.926;2023-06-10T05:02:39;96821.94;;;17.86;72.38
1401;BME280;46518;48.842;8.926;2023-06-10T05:05:07;96826.66;;;17.89;72.19
1401;BME280;46518;48.842;8.926;2023-06-10T05:07:36;96831.41;;;17.93;72.13
1401;BME280;46518;48.842;8.926;2023-06-10T05:10:05;96828.91;;;17.96;71.97
1401;BME280;46518;48.842;8.926;2023-06-10T05:12:34;96836.78;;;18.01;71.90
1401;BME280;46518;48.842;8.926;2023-06-10T05:15:04;96832.94;;;18.07;71.44
1401;BME280;46518;48.842;8.926;2023-06-10T05:17:32;96833.13;;;18.11;71.42
1401;BME280;46518;48.842;8.926;2023-06-10T05:20:02;96829.84;;;18.14;70.74
1401;BME280;46518;48.842;8.926;2023-06-10T05:22:31;96831.00;;;18.22;70.27
1401;BME280;46518;48.842;8.926;2023-06-10T05:24:59;96834.66;;;18.26;70.01
1401;BME280;46518;48.842;8.926;2023-06-10T05:27:27;96834.25;;;18.32;69.82
1401;BME280;46518;48.842;8.926;2023-06-10T05:29:55;96836.00;;;18.37;69.53
1401;BME280;46518;48.842;8.926;2023-06-10T05:32:25;96838.22;;;18.44;69.45
1401;BME280;46518;48.842;8.926;2023-06-10T05:34:53;96840.47;;;18.50;69.47
1401;BME280;46518;48.842;8.926;2023-06-10T05:37:21;96838.75;;;18.54;69.27
1401;BME280;46518;48.842;8.926;2023-06-10T05:39:49;96833.22;;;18.65;69.00
1401;BME280;46518;48.842;8.926;2023-06-10T05:42:18;96842.25;;;18.78;68.49
1401;BME280;46518;48.842;8.926;2023-06-10T05:44:46;96841.69;;;18.89;68.00
1401;BME280;46518;48.842;8.926;2023-06-10T05:47:14;96841.31;;;19.05;67.54
1401;BME280;46518;48.842;8.926;2023-06-10T05:49:44;96844.97;;;19.17;66.92
1401;BME280;46518;48.842;8.926;2023-06-10T05:52:15;96844.84;;;19.31;66.42
1401;BME280;46518;48.842;8.926;2023-06-10T05:54:43;96847.72;;;19.44;65.84
1401;BME280;46518;48.842;8.926;2023-06-10T05:57:11;96852.78;;;19.54;65.70
1401;BME280;46518;48.842;8.926;2023-06-10T05:59:39;96852.19;;;19.66;65.32
1401;BME280;46518;48.842;8.926;2023-06-10T06:02:08;96851.94;;;19.76;65.10
1401;BME280;46518;48.842;8.926;2023-06-10T06:04:36;96850.38;;;19.83;64.67
1401;BME280;46518;48.842;8.926;2023-06-10T06:07:06;96852.75;;;19.94;64.29
1401;BME280;46518;48.842;8.926;2023-06-10T06:09:34;96856.88;;;20.00;63.82
1401;BME280;46518;48.842;8.926;2023-06-10T06:12:03;96850.44;;;20.10;63.43
1401;BME280;46518;48.842;8.926;2023-06-10T06:14:37;96844.78;;;20.20;62.99
1401;BME280;46518;48.842;8.926;2023-06-10T06:17:05;96850.13;;;20.29;63.19
1401;BME280;46518;48.842;8.926;2023-06-10T06:19:33;96857.97;;;20.34;63.00
1401;BME280;46518;48.842;8.926;2023-06-10T06:22:01;96861.75;;;20.41;62.77
1401;BME280;46518;48.842;8.926;2023-06-10T06:24:31;96868.19;;;20.49;62.37
1401;BME280;46518;48.842;8.926;2023-06-10T06:27:00;96855.63;;;20.58;62.07
1401;BME280;46518;48.842;8.926;2023-06-10T06:29:28;96862.41;;;20.64;62.14
1401;BME280;46518;48.842;8.926;2023-06-10T06:31:57;96863.03;;;20.70;62.19
1401;BME280;46518;48.842;8.926;2023-06-10T06:34:25;96859.53;;;20.78;61.59
1401;BME280;46518;48.842;8.926;2023-06-10T06:36:53;96865.19;;;20.85;61.19
1401;BME280;46518;48.842;8.926;2023-06-10T06:39:23;96860.78;;;20.89;60.83
1401;BME280;46518;48.842;8.926;2023-06-10T06:41:54;96857.31;;;20.98;60.40
1401;BME280;46518;48.842;8.926;2023-06-10T06:44:39;96864.03;;;21.04;60.49
1401;BME280;46518;48.842;8.926;2023-06-10T06:47:08;96869.38;;;21.13;60.46
1401;BME280;46518;48.842;8.926;2023-06-10T06:49:36;96859.47;;;21.13;60.23
1401;BME280;46518;48.842;8.926;2023-06-10T06:52:04;96872.03;;;21.21;59.94
1401;BME280;46518;48.842;8.926;2023-06-10T06:54:32;96873.44;;;21.27;59.59
1401;BME280;46518;48.842;8.926;2023-06-10T06:57:03;96877.66;;;21.37;59.17
1401;BME280;46518;48.842;8.926;2023-06-10T06:59:32;96868.81;;;21.45;58.92
1401;BME280;46518;48.842;8.926;2023-06-10T07:02:00;96870.19;;;21.51;58.62
1401;BME280;46518;48.842;8.926;2023-06-10T07:04:28;96869.06;;;21.61;58.18
1401;BME280;46518;48.842;8.926;2023-06-10T07:06:57;96865.09;;;21.67;58.10
1401;BME280;46518;48.842;8.926;2023-06-10T07:09:25;96867.25;;;21.74;57.64
1401;BME280;46518;48.842;8.926;2023-06-10T07:11:53;96864.06;;;21.81;57.46
1401;BME280;46518;48.842;8.926;2023-06-10T07:14:22;96871.59;;;21.87;57.35
1401;BME280;46518;48.842;8.926;2023-06-10T07:16:51;96865.72;;;21.94;57.06
1401;BME280;46518;48.842;8.926;2023-06-10T07:19:19;96875.63;;;22.02;57.20
1401;BME280;46518;48.842;8.926;2023-06-10T07:21:47;96869.28;;;22.07;57.10
1401;BME280;46518;48.842;8.926;2023-06-10T07:24:15;96876.66;;;22.10;56.77
1401;BME280;46518;48.842;8.926;2023-06-10T07:26:43;96866.38;;;22.21;56.90
1401;BME280;46518;48.842;8.926;2023-06-10T07:29:12;96867.75;;;22.27;56.20
1401;BME280;46518;48.842;8.926;2023-06-10T07:31:42;96867.56;;;22.32;55.53
1401;BME280;46518;48.842;8.926;2023-06-10T07:34:10;96866.81;;;22.44;55.78
1401;BME280;46518;48.842;8.926;2023-06-10T07:36:38;96867.06;;;22.51;55.53
1401;BME280;46518;48.842;8.926;2023-06-10T07:39:06;96873.34;;;22.55;54.88
1401;BME280;46518;48.842;8.926;2023-06-10T07:41:34;96872.03;;;22.61;54.61
1401;BME280;46518;48.842;8.926;2023-06-10T07:44:03;96872.28;;;22.68;54.54
1401;BME280;46518;48.842;8.926;2023-06-10T07:46:31;96864.69;;;22.70;54.04
1401;BME280;46518;48.842;8.926;2023-06-10T07:49:00;96864.25;;;22.68;53.56
1401;BME280;46518;48.842;8.926;2023-06-10T07:51:29;96874.22;;;22.80;53.40
1401;BME280;46518;48.842;8.926;2023-06-10T07:53:57;96875.59;;;22.86;53.18
1401;BME280;46518;48.842;8.926;2023-06-10T07:56:25;96865.66;;;22.87;52.66
1401;BME280;46518;48.842;8.926;2023-06-10T07:58:53;96861.63;;;22.93;52.29
1401;BME280;46518;48.842;8.926;2023-06-10T08:01:22;96858.28;;;22.96;51.69
1401;BME280;46518;48.842;8.926;2023-06-10T08:03:51;96858.44;;;22.99;51.43
1401;BME280;46518;48.842;8.926;2023-06-10T08:06:21;96861.47;;;23.10;51.31
1401;BME280;46518;48.842;8.926;2023-06-10T08:08:49;96864.16;;;23.10;51.15
1401;BME280;46518;48.842;8.926;2023-06-10T08:11:18;96870.22;;;23.19;51.59
1401;BME280;46518;48.842;8.926;2023-06-10T08:13:46;96866.75;;;23.31;51.76
1401;BME280;46518;48.842;8.926;2023-06-10T08:16:15;96853.91;;;23.37;50.97
1401;BME280;46518;48.842;8.926;2023-06-10T08:18:43;96854.56;;;23.46;51.79
1401;BME280;46518;48.842;8.926;2023-06-10T08:21:11;96867.13;;;23.54;51.62
1401;BME280;46518;48.842;8.926;2023-06-10T08:23:42;96862.31;;;23.60;50.75
1401;BME280;46518;48.842;8.926;2023-06-10T08:26:13;96867.78;;;23.63;50.32
1401;BME280;46518;48.842;8.926;2023-06-10T08:28:41;96864.56;;;23.70;50.36
1401;BME280;46518;48.842;8.926;2023-06-10T08:31:10;96862.00;;;23.74;49.28
1401;BME280;46518;48.842;8.926;2023-06-10T08:33:38;96862.00;;;23.74;49.14
1401;BME280;46518;48.842;8.926;2023-06-10T08:36:08;96858.28;;;23.78;49.00
1401;BME280;46518;48.842;8.926;2023-06-10T08:38:36;96868.16;;;23.86;49.02
1401;BME280;46518;48.842;8.926;2023-06-10T08:41:06;96862.56;;;23.92;48.62
1401;BME280;46518;48.842;8.926;2023-06-10T08:43:41;96860.41;;;23.97;48.71
1401;BME280;46518;48.842;8.926;2023-06-10T08:46:13;96874.06;;;24.04;48.24
1401;BME280;46518;48.842;8.926;2023-06-10T08:48:43;96870.78;;;24.11;48.80
1401;BME280;46518;48.842;8.926;2023-06-10T08:51:13;96867.44;;;24.14;48.74
1401;BME280;46518;48.842;8.926;2023-06-10T08:53:48;96863.72;;;24.19;48.14
1401;BME280;46518;48.842;8.926;2023-06-10T08:56:20;96865.75;;;24.22;48.19
1401;BME280;46518;48.842;8.926;2023-06-10T08:58:49;96863.25;;;24.29;49.15
1401;BME280;46518;48.842;8.926;2023-06-10T09:01:17;96858.31;;;24.31;48.92
1401;BME280;46518;48.842;8.926;2023-06-10T09:03:46;96855.16;;;24.41;48.54
1401;BME280;46518;48.842;8.926;2023-06-10T09:06:14;96857.81;;;24.53;49.01
1401;BME280;46518;48.842;8.926;2023-06-10T09:08:42;96853.50;;;24.65;48.79
1401;BME280;46518;48.842;8.926;2023-06-10T09:11:11;96854.16;;;24.74;48.66
1401;BME280;46518;48.842;8.926;2023-06-10T09:13:41;96855.13;;;24.82;48.13
1401;BME280;46518;48.842;8.926;2023-06-10T09:16:09;96851.28;;;24.83;47.72
1401;BME280;46518;48.842;8.926;2023-06-10T09:18:39;96852.19;;;24.87;47.02
1401;BME280;46518;48.842;8.926;2023-06-10T09:21:07;96842.63;;;24.89;47.32
1401;BME280;46518;48.842;8.926;2023-06-10T09:23:37;96849.31;;;24.95;46.40
1401;BME280;46518;48.842;8.926;2023-06-10T09:26:08;96849.31;;;24.95;46.07
1401;BME280;46518;48.842;8.926;2023-06-10T09:28:38;96854.44;;;25.01;46.71
1401;BME280;46518;48.842;8.926;2023-06-10T09:31:09;96850.38;;;25.07;46.05
1401;BME280;46518;48.842;8.926;2023-06-10T09:33:37;96847.00;;;25.10;46.15
1401;BME280;46518;48.842;8.926;2023-06-10T09:36:07;96848.91;;;25.09;46.56
1401;BME280;46518;48.842;8.926;2023-06-10T09:38:35;96844.94;;;25.19;46.78
1401;BME280;46518;48.842;8.926;2023-06-10T09:41:04;96844.31;;;25.26;46.54
1401;BME280;46518;48.842;8.926;2023-06-10T09:43:40;96839.13;;;25.33;47.14
1401;BME280;46518;48.842;8.926;2023-06-10T09:46:15;96839.47;;;25.31;46.23
1401;BME280;46518;48.842;8.926;2023-06-10T09:48:45;96833.47;;;25.38;46.65
1401;BME280;46518;48.842;8.926;2023-06-10T09:51:14;96831.38;;;25.47;46.05
1401;BME280;46518;48.842;8.926;2023-06-10T09:53:47;96831.13;;;25.52;45.40
1401;BME280;46518;48.842;8.926;2023-06-10T09:56:15;96832.50;;;25.62;45.20
1401;BME280;46518;48.842;8.926;2023-06-10T09:58:45;96833.72;;;25.65;45.04
1401;BME280;46518;48.842;8.926;2023-06-10T10:01:15;96830.41;;;25.71;45.03
1401;BME280;46518;48.842;8.926;2023-06-10T10:03:44;96836.19;;;25.73;45.20
1401;BME280;46518;48.842;8.926;2023-06-10T10:06:14;96833.31;;;25.82;45.14
1401;BME280;46518;48.842;8.926;2023-06-10T10:08:43;96831.66;;;25.93;44.92
1401;BME280;46518;48.842;8.926;2023-06-10T10:11:13;96834.59;;;26.04;44.62
1401;BME280;46518;48.842;8.926;2023-06-10T10:13:45;96825.03;;;26.07;43.98
1401;BME280;46518;48.842;8.926;2023-06-10T10:16:16;96829.91;;;26.01;43.24
1401;BME280;46518;48.842;8.926;2023-06-10T10:18:51;96831.47;;;26.02;43.13
1401;BME280;46518;48.842;8.926;2023-06-10T10:21:22;96828.78;;;26.02;43.13
1401;BME280;46518;48.842;8.926;2023-06-10T10:23:53;96817.66;;;26.03;43.81
1401;BME280;46518;48.842;8.926;2023-06-10T10:26:26;96832.19;;;25.99;42.98
1401;BME280;46518;48.842;8.926;2023-06-10T10:29:05;96812.94;;;26.00;42.54
1401;BME280;46518;48.842;8.926;2023-06-10T10:31:37;96815.63;;;26.00;42.74
1401;BME280;46518;48.842;8.926;2023-06-10T10:34:10;96829.06;;;25.97;42.21
1401;BME280;46518;48.842;8.926;2023-06-10T10:36:40;96821.41;;;25.99;42.18
1401;BME280;46518;48.842;8.926;2023-06-10T10:39:10;96814.88;;;26.00;42.57
1401;BME280;46518;48.842;8.926;2023-06-10T10:41:39;96818.47;;;26.08;42.75
1401;BME280;46518;48.842;8.926;2023-06-10T10:44:09;96815.31;;;26.21;42.98
1401;BME280;46518;48.842;8.926;2023-06-10T10:46:44;96806.66;;;26.32;43.06
1401;BME280;46518;48.842;8.926;2023-06-10T10:49:14;96812.63;;;26.21;42.50
1401;BME280;46518;48.842;8.926;2023-06-10T10:51:56;96818.44;;;26.23;41.61
1401;BME280;46518;48.842;8.926;2023-06-10T10:54:32;96818.44;;;26.23;41.60
1401;BME280;46518;48.842;8.926;2023-06-10T10:57:09;96811.19;;;26.28;40.98
1401;BME280;46518;48.842;8.926;2023-06-10T10:59:50;96807.56;;;26.20;40.57
1401;BME280;46518;48.842;8.926;2023-06-10T11:02:32;96812.66;;;26.25;40.80
1401;BME280;46518;48.842;8.926;2023-06-10T11:05:02;96797.91;;;26.19;40.48
1401;BME280;46518;48.842;8.926;2023-06-10T11:07:32;96806.22;;;26.30;40.29
1401;BME280;46518;48.842;8.926;2023-06-10T11:10:02;96812.53;;;26.37;40.34
1401;BME280;46518;48.842;8.926;2023-06-10T11:12:51;96807.09;;;26.34;39.98
1401;BME280;46518;48.842;8.926;2023-06-10T11:15:23;96800.34;;;26.43;40.69
1401;BME280;46518;48.842;8.926;2023-06-10T11:18:09;96800.19;;;26.56;40.45
1401;BME280;46518;48.842;8.926;2023-06-10T11:20:45;96802.03;;;26.52;39.65
1401;BME280;46518;48.842;8.926;2023-06-10T11:23:25;96801.88;;;26.44;39.61
1401;BME280;46518;48.842;8.926;2023-06-10T11:26:11;96795.84;;;26.51;39.36
1401;BME280;46518;48.842;8.926;2023-06-10T11:28:40;96800.69;;;26.61;40.59
1401;BME280;46518;48.842;8.926;2023-06-10T11:31:09;96792.59;;;26.61;39.58
1401;BME280;46518;48.842;8.926;2023-06-10T11:33:48;96799.97;;;26.64;39.51
1401;BME280;46518;48.842;8.926;2023-06-10T11:36:20;96795.47;;;26.72;39.13
1401;BME280;46518;48.842;8.926;2023-06-10T11:38:49;96797.88;;;26.77;39.37
1401;BME280;46518;48.842;8.926;2023-06-10T11:41:17;96789.44;;;26.79;39.54
1401;BME280;46518;48.842;8.926;2023-06-10T11:43:46;96773.94;;;26.76;38.83
1401;BME280;46518;48.842;8.926;2023-06-10T11:46:14;96786.56;;;26.91;38.75
1401;BME280;46518;48.842;8.926;2023-06-10T11:48:49;96786.66;;;26.98;38.19
1401;BME280;46518;48.842;8.926;2023-06-10T11:51:18;96777.78;;;26.98;37.92
1401;BME280;46518;48.842;8.926;2023-06-10T11:53:47;96767.75;;;26.98;38.55
1401;BME280;46518;48.842;8.926;2023-06-10T11:56:19;96785.88;;;27.21;39.38
1401;BME280;46518;48.842;8.926;2023-06-10T11:58:52;96778.00;;;27.35;39.23
1401;BME280;46518;48.842;8.926;2023-06-10T12:01:21;96771.16;;;27.41;38.53
1401;BME280;46518;48.842;8.926;2023-06-10T12:04:02;96778.53;;;27.44;38.13
1401;BME280;46518;48.842;8.926;2023-06-10T12:06:49;96781.56;;;27.39;37.81
1401;BME280;46518;48.842;8.926;2023-06-10T12:09:18;96775.75;;;27.41;37.86
1401;BME280;46518;48.842;8.926;2023-06-10T12:11:55;96775.84;;;27.44;37.81
1401;BME280;46518;48.842;8.926;2023-06-10T12:14:53;96769.13;;;27.35;37.83
1401;BME280;46518;48.842;8.926;2023-06-10T12:17:23;96780.28;;;27.33;37.84
1401;BME280;46518;48.842;8.926;2023-06-10T12:19:53;96777.53;;;27.29;37.92
1401;BME280;46518;48.842;8.926;2023-06-10T12:22:21;96759.09;;;27.35;37.89
1401;BME280;46518;48.842;8.926;2023-06-10T12:25:00;96763.53;;;27.47;38.60
1401;BME280;46518;48.842;8.926;2023-06-10T12:27:30;96767.94;;;27.59;37.87
1401;BME280;46518;48.842;8.926;2023-06-10T12:29:58;96760.75;;;27.70;37.46
1401;BME280;46518;48.842;8.926;2023-06-10T12:32:39;96772.28;;;27.67;36.74
1401;BME280;46518;48.842;8.926;2023-06-10T12:35:10;96774.31;;;27.73;37.24
1401;BME280;46518;48.842;8.926;2023-06-10T12:37:41;96771.03;;;27.87;36.73
1401;BME280;46518;48.842;8.926;2023-06-10T12:40:10;96772.50;;;27.81;36.71
1401;BME280;46518;48.842;8.926;2023-06-10T12:42:39;96751.34;;;27.87;36.36
1401;BME280;46518;48.842;8.926;2023-06-10T12:45:09;96766.56;;;27.99;36.55
1401;BME280;46518;48.842;8.926;2023-06-10T12:47:39;96755.22;;;27.89;36.19
1401;BME280;46518;48.842;8.926;2023-06-10T12:50:10;96747.88;;;27.90;35.65
1401;BME280;46518;48.842;8.926;2023-06-10T12:52:39;96750.91;;;28.15;35.91
1401;BME280;46518;48.842;8.926;2023-06-10T12:55:09;96738.53;;;28.14;35.95
1401;BME280;46518;48.842;8.926;2023-06-10T12:57:47;96756.38;;;28.22;35.88
1401;BME280;46518;48.842;8.926;2023-06-10T13:00:17;96745.22;;;28.27;35.63
1401;BME280;46518;48.842;8.926;2023-06-10T13:02:46;96744.19;;;28.39;34.96
1401;BME280;46518;48.842;8.926;2023-06-10T13:05:16;96750.50;;;28.47;34.68
1401;BME280;46518;48.842;8.926;2023-06-10T13:07:45;96748.31;;;28.59;35.18
1401;BME280;46518;48.842;8.926;2023-06-10T13:10:14;96753.75;;;28.63;34.68
1401;BME280;46518;48.842;8.926;2023-06-10T13:12:43;96751.16;;;28.74;34.87
1401;BME280;46518;48.842;8.926;2023-06-10T13:15:15;96753.53;;;28.82;34.81
1401;BME280;46518;48.842;8.926;2023-06-10T13:17:44;96750.31;;;28.32;34.58
1401;BME280;46518;48.842;8.926;2023-06-10T13:20:18;96741.31;;;28.21;34.22
1401;BME280;46518;48.842;8.926;2023-06-10T13:22:47;96743.44;;;28.38;35.14
1401;BME280;46518;48.842;8.926;2023-06-10T13:25:16;96734.91;;;28.40;34.23